createdAt,value
2017-07-17T00:02:13.191Z,4.20
2017-07-17T00:04:40.129Z,4.67
2017-07-17T00:07:07.095Z,4.53
2017-07-17T00:09:33.998Z,4.97
2017-07-17T00:12:00.878Z,4.40
2017-07-17T00:14:28.242Z,4.70
2017-07-17T00:16:55.582Z,4.20
2017-07-17T00:19:22.539Z,4.50
2017-07-17T00:21:50.299Z,4.93
2017-07-17T00:24:17.234Z,4.13
2017-07-17T00:26:44.189Z,5.23
2017-07-17T00:29:11.134Z,5.00
2017-07-17T00:31:38.045Z,4.90
2017-07-17T00:34:05.034Z,5.30
2017-07-17T00:36:32.379Z,4.87
2017-07-17T00:38:59.307Z,4.70
2017-07-17T00:41:26.191Z,4.30
2017-07-17T00:43:53.782Z,4.87
2017-07-17T00:46:20.786Z,5.00
2017-07-17T00:48:48.135Z,4.97
2017-07-17T00:51:15.094Z,4.43
2017-07-17T00:53:42.408Z,5.33
2017-07-17T00:56:09.854Z,6.13
2017-07-17T00:58:36.846Z,5.80
2017-07-17T01:01:03.755Z,5.10
2017-07-17T01:03:30.742Z,4.70
2017-07-17T01:05:58.101Z,4.37
2017-07-17T01:08:25.391Z,5.30
2017-07-17T01:10:52.299Z,4.23
2017-07-17T01:13:19.750Z,4.30
2017-07-17T01:15:46.654Z,4.90
2017-07-17T01:18:13.949Z,4.80
2017-07-17T01:20:40.902Z,4.90
2017-07-17T01:23:07.842Z,5.20
2017-07-17T01:25:34.790Z,4.67
2017-07-17T01:28:01.744Z,4.73
2017-07-17T01:30:29.098Z,5.03
2017-07-17T01:32:56.347Z,5.67
2017-07-17T01:35:23.289Z,4.73
2017-07-17T01:37:50.242Z,5.00
2017-07-17T01:40:17.192Z,5.90
2017-07-17T01:42:44.470Z,4.90
2017-07-17T01:45:11.367Z,5.57
2017-07-17T01:47:38.334Z,5.63
2017-07-17T01:50:05.219Z,5.23
2017-07-17T01:52:32.138Z,5.10
2017-07-17T01:54:59.416Z,5.30
2017-07-17T01:57:26.341Z,5.17
2017-07-17T01:59:53.618Z,4.77
2017-07-17T02:02:20.498Z,5.10
2017-07-17T02:04:47.431Z,5.70
2017-07-17T02:07:14.410Z,5.43
2017-07-17T02:09:41.371Z,5.23
2017-07-17T02:12:08.682Z,5.27
2017-07-17T02:14:35.663Z,5.47
2017-07-17T02:17:02.610Z,5.80
2017-07-17T02:19:29.894Z,5.77
2017-07-17T02:21:56.806Z,5.33
2017-07-17T02:24:23.714Z,6.70
2017-07-17T02:26:50.597Z,5.50
2017-07-17T02:29:17.526Z,5.67
2017-07-17T02:31:44.490Z,5.77
2017-07-17T02:34:11.443Z,5.30
2017-07-17T02:36:38.409Z,4.87
2017-07-17T02:39:05.685Z,5.50
2017-07-17T02:41:32.591Z,5.17
2017-07-17T02:43:59.942Z,5.07
2017-07-17T02:46:27.717Z,5.37
2017-07-17T02:48:55.060Z,5.53
2017-07-17T02:51:22.405Z,6.20
2017-07-17T02:53:49.298Z,4.90
2017-07-17T02:56:16.217Z,5.43
2017-07-17T02:58:43.556Z,5.27
2017-07-17T03:01:10.498Z,5.50
2017-07-17T03:03:37.425Z,5.77
2017-07-17T03:06:04.399Z,5.00
2017-07-17T03:08:31.793Z,5.57
2017-07-17T03:10:58.805Z,5.90
2017-07-17T03:13:26.163Z,5.47
2017-07-17T03:15:54.027Z,5.30
2017-07-17T03:18:21.375Z,5.17
2017-07-17T03:20:48.330Z,5.53
2017-07-17T03:23:15.610Z,5.20
2017-07-17T03:25:42.534Z,5.07
2017-07-17T03:28:09.823Z,5.27
2017-07-17T03:30:36.726Z,5.27
2017-07-17T03:33:04.042Z,5.13
2017-07-17T03:35:31.023Z,4.90
2017-07-17T03:37:57.978Z,5.10
2017-07-17T03:40:25.330Z,5.17
2017-07-17T03:42:52.621Z,10.73
2017-07-17T03:45:19.627Z,4.87
2017-07-17T03:47:46.536Z,5.93
2017-07-17T03:50:13.513Z,5.30
2017-07-17T03:52:40.479Z,4.90
2017-07-17T03:55:08.197Z,5.30
2017-07-17T03:57:35.086Z,5.60
2017-07-17T04:00:02.409Z,6.10
2017-07-17T04:02:29.378Z,5.50
2017-07-17T04:04:56.323Z,6.17
2017-07-17T04:07:23.206Z,5.67
2017-07-17T04:09:50.135Z,6.20
2017-07-17T04:12:17.415Z,5.30
2017-07-17T04:14:44.314Z,6.57
2017-07-17T04:17:11.262Z,6.80
2017-07-17T04:19:38.389Z,6.60
2017-07-17T04:24:35.874Z,6.53
2017-07-17T04:27:02.839Z,6.43
2017-07-17T04:29:29.731Z,6.03
2017-07-17T04:31:56.730Z,9.43
2017-07-17T04:34:23.681Z,6.07
2017-07-17T04:36:50.972Z,6.27
2017-07-17T04:39:18.018Z,6.30
2017-07-17T04:41:45.343Z,6.30
2017-07-17T04:44:12.694Z,6.87
2017-07-17T04:46:40.050Z,9.27
2017-07-17T04:49:07.400Z,6.47
2017-07-17T04:51:34.335Z,6.47
2017-07-17T04:54:01.303Z,7.50
2017-07-17T04:56:28.651Z,7.37
2017-07-17T04:58:55.715Z,8.10
2017-07-17T05:01:23.137Z,8.27
2017-07-17T05:03:50.102Z,7.57
2017-07-17T05:06:17.054Z,7.60
2017-07-17T05:08:44.001Z,7.57
2017-07-17T05:11:10.883Z,8.00
2017-07-17T05:13:37.890Z,7.60
2017-07-17T05:16:04.766Z,6.97
2017-07-17T05:18:31.682Z,6.47
2017-07-17T05:20:58.601Z,7.10
2017-07-17T05:23:25.481Z,6.90
2017-07-17T05:25:53.142Z,7.83
2017-07-17T05:28:20.455Z,6.80
2017-07-17T05:30:47.437Z,7.57
2017-07-17T05:33:14.387Z,6.57
2017-07-17T05:35:41.673Z,6.30
2017-07-17T05:38:08.602Z,6.33
2017-07-17T05:40:35.934Z,6.83
2017-07-17T05:43:02.882Z,6.43
2017-07-17T05:45:29.806Z,7.00
2017-07-17T05:47:56.686Z,8.07
2017-07-17T05:50:24.030Z,7.87
2017-07-17T05:52:51.020Z,6.77
2017-07-17T05:55:17.908Z,6.80
2017-07-17T05:57:46.142Z,7.20
2017-07-17T06:00:13.026Z,7.43
2017-07-17T06:02:39.989Z,7.87
2017-07-17T06:05:06.986Z,8.07
2017-07-17T06:07:33.935Z,6.93
2017-07-17T06:10:00.883Z,6.53
2017-07-17T06:12:27.823Z,6.30
2017-07-17T06:14:54.777Z,7.47
2017-07-17T06:17:22.138Z,7.97
2017-07-17T06:19:49.489Z,6.93
2017-07-17T06:22:16.429Z,7.40
2017-07-17T06:24:43.305Z,7.53
2017-07-17T06:27:10.221Z,7.73
2017-07-17T06:29:37.098Z,7.50
2017-07-17T06:32:04.067Z,6.40
2017-07-17T06:34:30.991Z,6.23
2017-07-17T06:36:57.957Z,7.83
2017-07-17T06:39:25.010Z,7.97
2017-07-17T06:41:51.890Z,7.50
2017-07-17T06:44:18.810Z,7.63
2017-07-17T06:46:46.357Z,7.10
2017-07-17T06:49:13.308Z,7.60
2017-07-17T06:51:40.259Z,8.27
2017-07-17T06:54:07.202Z,8.33
2017-07-17T06:56:34.194Z,8.57
2017-07-17T06:59:01.073Z,8.37
2017-07-17T07:01:27.990Z,8.57
2017-07-17T07:03:54.992Z,8.77
2017-07-17T07:06:22.285Z,9.77
2017-07-17T07:08:49.216Z,8.83
2017-07-17T07:11:16.158Z,7.87
2017-07-17T07:13:43.083Z,8.83
2017-07-17T07:16:10.362Z,7.60
2017-07-17T07:18:37.378Z,8.33
2017-07-17T07:21:04.322Z,8.33
2017-07-17T07:23:31.210Z,8.93
2017-07-17T07:25:58.135Z,10.17
2017-07-17T07:28:25.415Z,8.57
2017-07-17T07:30:52.299Z,8.10
2017-07-17T07:33:19.258Z,8.30
2017-07-17T07:35:46.206Z,9.03
2017-07-17T07:38:13.095Z,14.50
2017-07-17T07:40:40.097Z,11.40
2017-07-17T07:43:07.059Z,8.90
2017-07-17T07:45:34.386Z,8.73
2017-07-17T07:48:01.346Z,7.97
2017-07-17T07:50:28.306Z,8.30
2017-07-17T07:52:55.691Z,9.40
2017-07-17T07:55:22.574Z,9.67
2017-07-17T07:57:49.551Z,8.70
2017-07-17T08:00:16.536Z,10.00
2017-07-17T08:02:43.451Z,9.00
2017-07-17T08:05:10.726Z,8.27
2017-07-17T08:07:37.609Z,8.80
2017-07-17T08:10:04.536Z,8.40
2017-07-17T08:12:31.418Z,8.67
2017-07-17T08:14:58.301Z,8.77
2017-07-17T08:17:25.226Z,8.30
2017-07-17T08:19:52.585Z,9.13
2017-07-17T08:22:19.867Z,8.50
2017-07-17T08:24:46.981Z,9.90
2017-07-17T08:27:13.927Z,8.10
2017-07-17T08:29:40.869Z,9.07
2017-07-17T08:32:07.814Z,9.87
2017-07-17T08:34:34.762Z,8.70
2017-07-17T08:37:01.720Z,8.10
2017-07-17T08:39:29.030Z,8.27
2017-07-17T08:41:55.949Z,8.67
2017-07-17T08:44:22.860Z,7.60
2017-07-17T08:46:50.217Z,8.33
2017-07-17T08:49:17.133Z,15.00
2017-07-17T08:51:44.015Z,8.33
2017-07-17T08:54:11.289Z,8.17
2017-07-17T08:56:38.317Z,8.27
2017-07-17T08:59:05.674Z,8.47
2017-07-17T09:01:32.955Z,7.73
2017-07-17T09:03:59.867Z,8.90
2017-07-17T09:06:26.751Z,11.10
2017-07-17T09:08:53.677Z,8.07
2017-07-17T09:11:20.570Z,8.60
2017-07-17T09:13:47.542Z,8.03
2017-07-17T09:16:14.491Z,8.53
2017-07-17T09:18:41.451Z,8.63
2017-07-17T09:21:08.798Z,9.80
2017-07-17T09:23:36.142Z,13.23
2017-07-17T09:26:03.017Z,13.13
2017-07-17T09:28:29.938Z,8.10
2017-07-17T09:30:56.863Z,11.50
2017-07-17T09:33:23.834Z,11.03
2017-07-17T09:35:50.722Z,9.13
2017-07-17T09:38:17.727Z,8.57
2017-07-17T09:40:44.615Z,9.00
2017-07-17T09:43:11.514Z,7.97
2017-07-17T09:45:38.462Z,7.87
2017-07-17T09:48:05.407Z,8.10
2017-07-17T09:50:32.353Z,9.03
2017-07-17T09:52:59.252Z,8.07
2017-07-17T09:55:26.250Z,8.87
2017-07-17T09:57:53.147Z,8.90
2017-07-17T10:00:20.142Z,7.47
2017-07-17T10:02:47.085Z,8.87
2017-07-17T10:05:13.991Z,8.27
2017-07-17T10:07:40.926Z,9.33
2017-07-17T10:10:07.810Z,8.20
2017-07-17T10:12:34.766Z,8.63
2017-07-17T10:15:01.718Z,10.37
2017-07-17T10:17:28.662Z,8.60
2017-07-17T10:19:55.580Z,8.57
2017-07-17T10:22:22.670Z,7.80
2017-07-17T10:24:50.009Z,8.93
2017-07-17T10:27:16.954Z,8.20
2017-07-17T10:29:43.874Z,8.40
2017-07-17T10:32:10.753Z,8.60
2017-07-17T10:34:37.702Z,8.90
2017-07-17T10:37:04.650Z,8.33
2017-07-17T10:39:32.002Z,10.33
2017-07-17T10:41:58.946Z,9.20
2017-07-17T10:44:25.878Z,8.63
2017-07-17T10:46:52.762Z,8.13
2017-07-17T10:49:19.686Z,8.53
2017-07-17T10:51:47.034Z,9.73
2017-07-17T10:54:13.986Z,7.73
2017-07-17T10:56:41.261Z,7.90
2017-07-17T10:59:08.271Z,10.83
2017-07-17T11:01:35.258Z,7.73
2017-07-17T11:04:02.157Z,9.00
2017-07-17T11:06:29.109Z,8.30
2017-07-17T11:08:56.072Z,6.90
2017-07-17T11:11:23.006Z,7.63
2017-07-17T11:13:50.310Z,8.83
2017-07-17T11:16:17.303Z,8.07
2017-07-17T11:18:44.192Z,7.23
2017-07-17T11:21:11.514Z,7.50
2017-07-17T11:23:38.790Z,8.10
2017-07-17T11:26:05.678Z,8.00
2017-07-17T11:28:32.648Z,7.70
2017-07-17T11:30:59.539Z,7.37
2017-07-17T11:33:26.434Z,6.87
2017-07-17T11:35:53.406Z,7.37
2017-07-17T11:38:20.747Z,7.03
2017-07-17T11:40:48.094Z,7.67
2017-07-17T11:43:15.630Z,8.70
2017-07-17T11:45:42.518Z,8.30
2017-07-17T12:00:39.737Z,7.73
2017-07-17T12:03:06.699Z,7.60
2017-07-17T12:08:00.835Z,8.70
2017-07-17T12:10:27.721Z,8.60
2017-07-17T12:12:54.674Z,8.57
2017-07-17T12:15:21.721Z,8.70
2017-07-17T12:17:48.612Z,10.40
2017-07-17T12:20:15.622Z,8.80
2017-07-17T12:22:42.566Z,9.67
2017-07-17T12:25:09.446Z,8.90
2017-07-17T12:27:36.361Z,8.17
2017-07-17T12:30:03.713Z,8.73
2017-07-17T12:32:30.661Z,8.20
2017-07-17T12:34:57.988Z,8.97
2017-07-17T12:37:24.962Z,7.97
2017-07-17T12:39:52.006Z,8.10
2017-07-17T12:42:18.958Z,7.80
2017-07-17T12:44:45.901Z,7.20
2017-07-17T12:47:12.854Z,7.87
2017-07-17T12:49:39.739Z,7.00
2017-07-17T12:52:06.754Z,7.77
2017-07-17T12:54:34.102Z,6.67
2017-07-17T12:57:00.976Z,8.20
2017-07-17T12:59:27.894Z,6.80
2017-07-17T13:01:55.289Z,6.57
2017-07-17T13:04:22.182Z,7.30
2017-07-17T13:06:49.134Z,7.67
2017-07-17T13:09:16.057Z,7.47
2017-07-17T13:11:42.933Z,7.70
2017-07-17T13:14:09.879Z,8.37
2017-07-17T13:16:36.798Z,8.10
2017-07-17T13:19:03.685Z,6.73
2017-07-17T13:21:31.029Z,8.30
2017-07-17T13:23:58.338Z,8.27
2017-07-17T13:26:25.245Z,8.73
2017-07-17T13:28:52.579Z,8.63
2017-07-17T13:31:19.494Z,8.37
2017-07-17T13:33:46.653Z,7.70
2017-07-17T13:36:13.571Z,7.93
2017-07-17T13:38:40.564Z,6.87
2017-07-17T13:41:07.509Z,7.40
2017-07-17T13:43:34.457Z,7.80
2017-07-17T13:46:01.379Z,8.10
2017-07-17T13:48:28.294Z,7.93
2017-07-17T13:50:55.201Z,8.33
2017-07-17T13:53:22.179Z,8.67
2017-07-17T13:55:49.089Z,8.20
2017-07-17T13:58:16.039Z,8.87
2017-07-17T14:00:43.086Z,9.40
2017-07-17T14:03:09.982Z,8.30
2017-07-17T14:05:36.977Z,8.17
2017-07-17T14:08:03.899Z,8.80
2017-07-17T14:10:30.787Z,9.80
2017-07-17T14:12:58.134Z,9.60
2017-07-17T14:15:25.463Z,9.07
2017-07-17T14:17:52.472Z,9.00
2017-07-17T14:20:19.370Z,9.50
2017-07-17T14:22:46.285Z,10.30
2017-07-17T14:25:13.178Z,9.97
2017-07-17T14:27:40.518Z,9.67
2017-07-17T14:30:07.472Z,10.10
2017-07-17T14:32:34.817Z,9.97
2017-07-17T14:35:01.694Z,9.90
2017-07-17T14:37:28.709Z,10.73
2017-07-17T14:39:55.677Z,10.87
2017-07-17T14:42:22.983Z,10.30
2017-07-17T14:44:49.960Z,10.10
2017-07-17T14:47:16.905Z,10.50
2017-07-17T14:49:43.786Z,9.47
2017-07-17T14:52:10.704Z,8.80
2017-07-17T14:54:37.693Z,8.80
2017-07-17T14:57:04.689Z,9.20
2017-07-17T14:59:31.623Z,8.47
2017-07-17T15:01:58.589Z,7.53
2017-07-17T15:04:26.043Z,7.67
2017-07-17T15:06:52.993Z,7.50
2017-07-17T15:09:19.937Z,8.40
2017-07-17T15:11:46.818Z,7.50
2017-07-17T15:14:13.749Z,7.50
2017-07-17T15:16:40.677Z,7.27
2017-07-17T15:19:07.955Z,6.90
2017-07-17T15:21:34.874Z,8.57
2017-07-17T15:24:02.159Z,7.33
2017-07-17T15:26:29.040Z,7.83
2017-07-17T15:28:56.757Z,8.23
2017-07-17T15:31:23.647Z,8.37
2017-07-17T15:33:50.618Z,7.63
2017-07-17T15:36:17.607Z,7.57
2017-07-17T15:38:44.506Z,7.30
2017-07-17T15:41:11.389Z,7.30
2017-07-17T15:43:38.334Z,8.20
2017-07-17T15:46:05.253Z,7.87
2017-07-17T15:48:32.600Z,7.37
2017-07-17T15:50:59.513Z,7.47
2017-07-17T15:53:26.397Z,7.37
2017-07-17T15:55:53.746Z,7.30
2017-07-17T15:58:20.714Z,7.23
2017-07-17T16:00:48.047Z,8.33
2017-07-17T16:03:14.930Z,8.90
2017-07-17T16:05:42.249Z,7.80
2017-07-17T16:08:09.238Z,7.80
2017-07-17T16:10:36.175Z,8.50
2017-07-17T16:13:03.095Z,7.63
2017-07-17T16:15:30.407Z,8.80
2017-07-17T16:17:57.288Z,8.60
2017-07-17T16:20:24.645Z,8.83
2017-07-17T16:22:51.590Z,8.93
2017-07-17T16:25:18.646Z,9.60
2017-07-17T16:27:45.954Z,8.30
2017-07-17T16:30:12.934Z,7.70
2017-07-17T16:32:39.854Z,8.50
2017-07-17T16:35:06.834Z,7.73
2017-07-17T16:37:34.289Z,8.47
2017-07-17T16:40:01.542Z,8.17
2017-07-17T16:42:28.433Z,6.73
2017-07-17T16:44:55.434Z,7.37
2017-07-17T16:47:22.308Z,6.60
2017-07-17T16:49:49.242Z,7.17
2017-07-17T16:52:16.694Z,7.30
2017-07-17T16:54:44.004Z,6.97
2017-07-17T16:57:10.990Z,6.87
2017-07-17T16:59:37.933Z,7.47
2017-07-17T17:02:04.878Z,7.20
2017-07-17T17:04:31.798Z,7.13
2017-07-17T17:06:58.770Z,6.27
2017-07-17T17:09:25.681Z,6.37
2017-07-17T17:11:52.661Z,6.43
2017-07-17T17:14:19.610Z,5.83
2017-07-17T17:16:46.538Z,5.57
2017-07-17T17:19:13.477Z,6.93
2017-07-17T17:21:40.366Z,6.00
2017-07-17T17:24:07.802Z,4.90
2017-07-17T17:26:34.694Z,5.10
2017-07-17T17:29:01.586Z,4.17
2017-07-17T17:31:28.585Z,5.60
2017-07-17T17:33:55.689Z,4.93
2017-07-17T17:36:22.588Z,4.60
2017-07-17T17:38:49.586Z,4.60
2017-07-17T17:41:16.507Z,4.00
2017-07-17T17:43:43.386Z,5.60
2017-07-17T17:46:10.738Z,4.27
2017-07-17T17:48:38.090Z,4.43
2017-07-17T17:51:04.989Z,4.67
2017-07-17T17:53:31.947Z,5.10
2017-07-17T17:55:59.043Z,4.37
2017-07-17T17:58:26.323Z,4.03
2017-07-17T18:00:53.241Z,4.57
2017-07-17T18:03:20.566Z,4.20
2017-07-17T18:05:47.467Z,4.30
2017-07-17T18:08:14.402Z,5.00
2017-07-17T18:10:41.369Z,4.10
2017-07-17T18:13:08.267Z,4.53
2017-07-17T18:15:35.222Z,4.70
2017-07-17T18:18:02.575Z,4.47
2017-07-17T18:20:29.934Z,4.37
2017-07-17T18:22:57.386Z,4.73
2017-07-17T18:25:24.265Z,3.80
2017-07-17T18:27:51.153Z,4.57
2017-07-17T18:30:18.137Z,4.10
2017-07-17T18:32:45.025Z,4.47
2017-07-17T18:35:12.154Z,4.37
2017-07-17T18:37:39.074Z,4.70
2017-07-17T18:40:06.355Z,4.17
2017-07-17T18:42:33.277Z,4.10
2017-07-17T18:45:00.622Z,4.60
2017-07-17T18:47:27.571Z,4.50
2017-07-17T18:49:54.514Z,4.37
2017-07-17T18:52:21.458Z,4.20
2017-07-17T18:54:48.404Z,4.60
2017-07-17T18:57:15.357Z,4.00
2017-07-17T18:59:42.637Z,4.60
2017-07-17T19:02:09.576Z,5.57
2017-07-17T19:04:36.493Z,4.93
2017-07-17T19:07:03.381Z,5.13
2017-07-17T19:09:30.493Z,4.13
2017-07-17T19:11:58.288Z,5.73
2017-07-17T19:14:25.209Z,5.30
2017-07-17T19:16:52.557Z,5.53
2017-07-17T19:19:19.511Z,5.97
2017-07-17T19:21:46.463Z,5.10
2017-07-17T19:24:13.815Z,5.50
2017-07-17T19:26:40.745Z,5.50
2017-07-17T19:29:07.701Z,5.40
2017-07-17T19:31:34.590Z,5.23
2017-07-17T19:34:01.594Z,4.77
2017-07-17T19:36:28.486Z,4.87
2017-07-17T19:38:55.489Z,4.90
2017-07-17T19:41:22.434Z,5.20
2017-07-17T19:43:49.313Z,4.70
2017-07-17T19:46:16.206Z,5.00
2017-07-17T19:48:43.173Z,4.80
2017-07-17T19:51:10.057Z,5.50
2017-07-17T19:53:36.961Z,4.80
2017-07-17T19:56:04.371Z,5.00
2017-07-17T19:58:31.271Z,4.27
2017-07-17T20:00:58.209Z,3.67
2017-07-17T20:03:25.689Z,4.10
2017-07-17T20:05:52.998Z,4.00
2017-07-17T20:08:19.972Z,4.23
2017-07-17T20:10:46.893Z,4.10
2017-07-17T20:13:14.125Z,4.30
2017-07-17T20:15:41.033Z,4.37
2017-07-17T20:18:08.379Z,4.23
2017-07-17T20:20:35.728Z,4.10
2017-07-17T20:23:02.683Z,3.60
2017-07-17T20:25:29.629Z,4.13
2017-07-17T20:27:56.582Z,3.90
2017-07-17T20:30:23.552Z,4.20
2017-07-17T20:32:50.469Z,4.40
2017-07-17T20:35:17.418Z,4.77
2017-07-17T20:37:44.366Z,4.63
2017-07-17T20:40:11.254Z,4.77
2017-07-17T20:42:38.181Z,4.00
2017-07-17T20:45:05.065Z,4.30
2017-07-17T20:47:32.045Z,3.80
2017-07-17T20:49:58.994Z,3.03
2017-07-17T20:52:25.942Z,3.10
2017-07-17T20:54:52.886Z,3.37
2017-07-17T20:57:19.934Z,3.30
2017-07-17T20:59:46.885Z,3.00
2017-07-17T21:02:13.775Z,3.50
2017-07-17T21:04:40.786Z,3.43
2017-07-17T21:07:08.162Z,2.93
2017-07-17T21:09:35.093Z,3.20
2017-07-17T21:12:02.373Z,4.00
2017-07-17T21:14:29.277Z,3.57
2017-07-17T21:16:56.637Z,3.17
2017-07-17T21:19:23.582Z,3.60
2017-07-17T21:21:50.468Z,5.87
2017-07-17T21:24:17.383Z,3.13
2017-07-17T21:26:44.662Z,4.70
2017-07-17T21:29:11.619Z,3.40
2017-07-17T21:31:38.556Z,3.03
2017-07-17T21:34:05.443Z,4.00
2017-07-17T21:36:32.414Z,3.67
2017-07-17T21:38:59.767Z,3.70
2017-07-17T21:41:26.721Z,4.00
2017-07-17T21:43:54.067Z,3.23
2017-07-17T21:46:25.897Z,3.80
2017-07-17T21:48:52.821Z,3.40
2017-07-17T21:51:19.718Z,3.47
2017-07-17T21:53:46.685Z,4.10
2017-07-17T21:56:13.991Z,4.40
2017-07-17T21:58:40.870Z,4.20
2017-07-17T22:01:08.202Z,4.07
2017-07-17T22:03:35.118Z,3.00
2017-07-17T22:06:02.015Z,3.87
2017-07-17T22:08:28.957Z,3.70
2017-07-17T22:10:55.881Z,3.87
2017-07-17T22:13:22.787Z,3.70
2017-07-17T22:15:49.704Z,3.70
2017-07-17T22:18:17.054Z,3.40
2017-07-17T22:20:43.986Z,4.50
2017-07-17T22:23:10.870Z,3.97
2017-07-17T22:25:37.758Z,3.70
2017-07-17T22:28:04.731Z,3.73
2017-07-17T22:30:31.683Z,3.70
2017-07-17T22:32:58.565Z,3.67
2017-07-17T22:35:25.489Z,4.33
2017-07-17T22:37:52.846Z,3.73
2017-07-17T22:40:20.183Z,3.93
2017-07-17T22:42:47.109Z,3.10
2017-07-17T22:45:13.990Z,3.27
2017-07-17T22:47:41.313Z,3.90
2017-07-17T22:50:08.236Z,4.53
2017-07-17T22:52:35.115Z,3.43
2017-07-17T22:55:02.283Z,3.87
2017-07-17T22:57:29.642Z,3.77
2017-07-17T22:59:56.601Z,3.60
2017-07-17T23:02:23.520Z,3.27
2017-07-17T23:04:50.469Z,3.20
2017-07-17T23:07:17.408Z,3.40
2017-07-17T23:09:44.308Z,3.30
2017-07-17T23:12:11.200Z,3.63
2017-07-17T23:14:38.115Z,3.50
2017-07-17T23:17:05.094Z,3.57
2017-07-17T23:19:32.011Z,3.00
2017-07-17T23:21:58.994Z,3.13
2017-07-17T23:24:26.274Z,4.00
2017-07-17T23:26:53.197Z,3.57
2017-07-17T23:29:20.480Z,3.23
2017-07-17T23:31:47.390Z,3.53
2017-07-17T23:34:14.342Z,3.77
2017-07-17T23:36:41.691Z,3.20
2017-07-17T23:39:08.638Z,3.80
2017-07-17T23:41:35.589Z,4.00
2017-07-17T23:44:02.918Z,3.90
2017-07-17T23:46:29.810Z,3.27
2017-07-17T23:48:56.930Z,3.87
2017-07-17T23:51:23.885Z,3.90
2017-07-17T23:53:51.241Z,4.17
2017-07-17T23:56:18.189Z,4.83
2017-07-17T23:58:45.543Z,4.40
